sensor_id;sensor_type;location;lat;lon;timestamp;P1;durP1;ratioP1;P2;durP2;ratioP2
1779;SDS011;10019;46.670;14.260;2022-08-19T00:00:50;8.93;;;5.40;;
1779;SDS011;10019;46.670;14.260;2022-08-19T00:03:22;13.93;;;6.70;;
1779;SDS011;10019;46.670;14.260;2022-08-19T00:05:54;12.83;;;6.17;;
1779;SDS011;10019;46.670;14.260;2022-08-19T00:08:25;13.20;;;6.30;;
1779;SDS011;10019;46.670;14.260;2022-08-19T00:10:57;8.93;;;5.17;;
1779;SDS011;10019;46.670;14.260;2022-08-19T00:13:30;10.87;;;6.00;;
1779;SDS011;10019;46.670;14.260;2022-08-19T00:16:02;11.87;;;6.83;;
1779;SDS011;10019;46.670;14.260;2022-08-19T00:18:35;7.23;;;6.53;;
1779;SDS011;10019;46.670;14.260;2022-08-19T00:21:07;12.63;;;6.10;;
1779;SDS011;10019;46.670;14.260;2022-08-19T00:23:39;7.70;;;5.80;;
1779;SDS011;10019;46.670;14.260;2022-08-19T00:26:12;6.90;;;5.53;;
1779;SDS011;10019;46.670;14.260;2022-08-19T00:28:46;8.17;;;5.17;;
1779;SDS011;10019;46.670;14.260;2022-08-19T00:31:18;6.43;;;5.43;;
1779;SDS011;10019;46.670;14.260;2022-08-19T00:33:50;6.87;;;5.13;;
1779;SDS011;10019;46.670;14.260;2022-08-19T00:36:22;7.53;;;5.37;;
1779;SDS011;10019;46.670;14.260;2022-08-19T00:38:54;7.13;;;5.13;;
1779;SDS011;10019;46.670;14.260;2022-08-19T00:41:26;6.07;;;5.37;;
1779;SDS011;10019;46.670;14.260;2022-08-19T00:44:04;11.47;;;5.47;;
1779;SDS011;10019;46.670;14.260;2022-08-19T00:46:38;9.30;;;6.37;;
1779;SDS011;10019;46.670;14.260;2022-08-19T00:49:13;6.60;;;5.10;;
1779;SDS011;10019;46.670;14.260;2022-08-19T00:51:47;10.83;;;5.43;;
1779;SDS011;10019;46.670;14.260;2022-08-19T00:54:21;8.60;;;5.03;;
1779;SDS011;10019;46.670;14.260;2022-08-19T00:56:53;5.53;;;4.70;;
1779;SDS011;10019;46.670;14.260;2022-08-19T00:59:26;7.00;;;5.47;;
1779;SDS011;10019;46.670;14.260;2022-08-19T01:01:59;11.80;;;6.07;;
1779;SDS011;10019;46.670;14.260;2022-08-19T01:04:31;7.40;;;5.47;;
1779;SDS011;10019;46.670;14.260;2022-08-19T01:07:02;7.47;;;5.40;;
1779;SDS011;10019;46.670;14.260;2022-08-19T01:09:34;10.13;;;5.50;;
1779;SDS011;10019;46.670;14.260;2022-08-19T01:12:06;9.13;;;5.33;;
1779;SDS011;10019;46.670;14.260;2022-08-19T01:14:40;7.30;;;5.67;;
1779;SDS011;10019;46.670;14.260;2022-08-19T01:17:12;6.20;;;5.13;;
1779;SDS011;10019;46.670;14.260;2022-08-19T01:19:44;7.60;;;5.30;;
1779;SDS011;10019;46.670;14.260;2022-08-19T01:22:19;13.70;;;5.53;;
1779;SDS011;10019;46.670;14.260;2022-08-19T01:24:58;9.77;;;5.47;;
1779;SDS011;10019;46.670;14.260;2022-08-19T01:27:36;11.90;;;6.03;;
1779;SDS011;10019;46.670;14.260;2022-08-19T01:30:09;5.33;;;4.60;;
1779;SDS011;10019;46.670;14.260;2022-08-19T01:32:43;8.23;;;4.90;;
1779;SDS011;10019;46.670;14.260;2022-08-19T01:35:14;6.80;;;5.40;;
1779;SDS011;10019;46.670;14.260;2022-08-19T01:37:50;7.33;;;5.47;;
1779;SDS011;10019;46.670;14.260;2022-08-19T01:40:25;7.03;;;4.70;;
1779;SDS011;10019;46.670;14.260;2022-08-19T01:42:59;6.13;;;5.40;;
1779;SDS011;10019;46.670;14.260;2022-08-19T01:45:33;11.33;;;5.90;;
1779;SDS011;10019;46.670;14.260;2022-08-19T01:48:06;9.20;;;5.00;;
1779;SDS011;10019;46.670;14.260;2022-08-19T01:50:38;8.77;;;5.40;;
1779;SDS011;10019;46.670;14.260;2022-08-19T01:53:11;7.80;;;5.23;;
1779;SDS011;10019;46.670;14.260;2022-08-19T01:55:43;6.83;;;5.27;;
1779;SDS011;10019;46.670;14.260;2022-08-19T01:58:17;7.07;;;5.20;;
1779;SDS011;10019;46.670;14.260;2022-08-19T02:00:51;6.67;;;5.37;;
1779;SDS011;10019;46.670;14.260;2022-08-19T02:03:23;12.30;;;6.07;;
1779;SDS011;10019;46.670;14.260;2022-08-19T02:05:56;6.20;;;5.20;;
1779;SDS011;10019;46.670;14.260;2022-08-19T02:08:32;7.07;;;5.43;;
1779;SDS011;10019;46.670;14.260;2022-08-19T02:11:04;6.13;;;5.53;;
1779;SDS011;10019;46.670;14.260;2022-08-19T02:13:36;8.67;;;6.33;;
1779;SDS011;10019;46.670;14.260;2022-08-19T02:16:08;9.67;;;5.80;;
1779;SDS011;10019;46.670;14.260;2022-08-19T02:18:40;11.97;;;5.60;;
1779;SDS011;10019;46.670;14.260;2022-08-19T02:21:11;13.57;;;6.70;;
1779;SDS011;10019;46.670;14.260;2022-08-19T02:23:46;9.70;;;6.53;;
1779;SDS011;10019;46.670;14.260;2022-08-19T02:26:18;8.80;;;6.50;;
1779;SDS011;10019;46.670;14.260;2022-08-19T02:28:49;8.53;;;6.23;;
1779;SDS011;10019;46.670;14.260;2022-08-19T02:31:22;7.33;;;6.20;;
1779;SDS011;10019;46.670;14.260;2022-08-19T02:33:56;10.20;;;6.77;;
1779;SDS011;10019;46.670;14.260;2022-08-19T02:56:26;10.03;;;6.50;;
1779;SDS011;10019;46.670;14.260;2022-08-19T02:58:58;8.50;;;6.20;;
1779;SDS011;10019;46.670;14.260;2022-08-19T03:01:31;11.20;;;6.00;;
1779;SDS011;10019;46.670;14.260;2022-08-19T03:04:03;10.27;;;6.53;;
1779;SDS011;10019;46.670;14.260;2022-08-19T03:06:37;14.20;;;5.90;;
1779;SDS011;10019;46.670;14.260;2022-08-19T03:09:10;10.50;;;6.67;;
1779;SDS011;10019;46.670;14.260;2022-08-19T03:11:44;9.43;;;5.33;;
1779;SDS011;10019;46.670;14.260;2022-08-19T03:14:15;8.40;;;5.03;;
1779;SDS011;10019;46.670;14.260;2022-08-19T03:16:49;7.93;;;4.87;;
1779;SDS011;10019;46.670;14.260;2022-08-19T03:19:21;4.97;;;4.47;;
1779;SDS011;10019;46.670;14.260;2022-08-19T03:21:53;8.40;;;4.43;;
1779;SDS011;10019;46.670;14.260;2022-08-19T03:24:25;4.90;;;4.20;;
1779;SDS011;10019;46.670;14.260;2022-08-19T03:26:58;6.93;;;4.00;;
1779;SDS011;10019;46.670;14.260;2022-08-19T03:29:30;5.80;;;4.17;;
1779;SDS011;10019;46.670;14.260;2022-08-19T03:32:04;4.87;;;4.00;;
1779;SDS011;10019;46.670;14.260;2022-08-19T03:34:36;5.57;;;4.57;;
1779;SDS011;10019;46.670;14.260;2022-08-19T03:37:10;6.30;;;4.03;;
1779;SDS011;10019;46.670;14.260;2022-08-19T03:39:42;7.77;;;4.73;;
1779;SDS011;10019;46.670;14.260;2022-08-19T03:42:15;5.83;;;4.30;;
1779;SDS011;10019;46.670;14.260;2022-08-19T03:44:47;4.93;;;4.40;;
1779;SDS011;10019;46.670;14.260;2022-08-19T03:47:18;7.93;;;4.47;;
1779;SDS011;10019;46.670;14.260;2022-08-19T03:49:50;7.10;;;4.57;;
1779;SDS011;10019;46.670;14.260;2022-08-19T03:52:22;6.57;;;4.40;;
1779;SDS011;10019;46.670;14.260;2022-08-19T03:54:54;5.13;;;4.53;;
1779;SDS011;10019;46.670;14.260;2022-08-19T03:57:27;6.77;;;5.20;;
1779;SDS011;10019;46.670;14.260;2022-08-19T03:59:58;5.00;;;4.27;;
1779;SDS011;10019;46.670;14.260;2022-08-19T04:02:31;4.90;;;4.33;;
1779;SDS011;10019;46.670;14.260;2022-08-19T04:05:02;8.17;;;4.80;;
1779;SDS011;10019;46.670;14.260;2022-08-19T04:07:35;5.77;;;4.23;;
1779;SDS011;10019;46.670;14.260;2022-08-19T04:10:07;5.23;;;4.30;;
1779;SDS011;10019;46.670;14.260;2022-08-19T04:12:40;4.83;;;4.33;;
1779;SDS011;10019;46.670;14.260;2022-08-19T04:15:12;5.30;;;4.80;;
1779;SDS011;10019;46.670;14.260;2022-08-19T04:17:44;8.27;;;4.90;;
1779;SDS011;10019;46.670;14.260;2022-08-19T04:20:16;5.40;;;4.30;;
1779;SDS011;10019;46.670;14.260;2022-08-19T04:22:47;8.13;;;4.43;;
1779;SDS011;10019;46.670;14.260;2022-08-19T04:25:19;5.00;;;4.60;;
1779;SDS011;10019;46.670;14.260;2022-08-19T04:27:52;6.17;;;4.77;;
1779;SDS011;10019;46.670;14.260;2022-08-19T04:30:24;6.00;;;4.90;;
1779;SDS011;10019;46.670;14.260;2022-08-19T04:32:56;6.10;;;4.60;;
1779;SDS011;10019;46.670;14.260;2022-08-19T04:35:27;8.77;;;5.27;;
1779;SDS011;10019;46.670;14.260;2022-08-19T04:38:00;9.33;;;6.00;;
1779;SDS011;10019;46.670;14.260;2022-08-19T04:40:31;5.87;;;5.27;;
1779;SDS011;10019;46.670;14.260;2022-08-19T04:43:22;6.90;;;5.13;;
1779;SDS011;10019;46.670;14.260;2022-08-19T04:45:54;10.00;;;5.90;;
1779;SDS011;10019;46.670;14.260;2022-08-19T04:48:26;6.00;;;5.37;;
1779;SDS011;10019;46.670;14.260;2022-08-19T04:50:58;10.50;;;4.97;;
1779;SDS011;10019;46.670;14.260;2022-08-19T04:53:30;12.03;;;5.43;;
1779;SDS011;10019;46.670;14.260;2022-08-19T04:56:04;5.83;;;5.30;;
1779;SDS011;10019;46.670;14.260;2022-08-19T04:58:40;6.53;;;5.57;;
1779;SDS011;10019;46.670;14.260;2022-08-19T05:01:13;7.63;;;5.40;;
1779;SDS011;10019;46.670;14.260;2022-08-19T05:03:48;6.13;;;5.20;;
1779;SDS011;10019;46.670;14.260;2022-08-19T05:06:20;6.30;;;5.60;;
1779;SDS011;10019;46.670;14.260;2022-08-19T05:08:52;8.73;;;5.80;;
1779;SDS011;10019;46.670;14.260;2022-08-19T05:11:25;5.80;;;5.20;;
1779;SDS011;10019;46.670;14.260;2022-08-19T05:14:01;7.13;;;5.10;;
1779;SDS011;10019;46.670;14.260;2022-08-19T05:16:33;6.07;;;5.27;;
1779;SDS011;10019;46.670;14.260;2022-08-19T05:19:05;9.00;;;5.13;;
1779;SDS011;10019;46.670;14.260;2022-08-19T05:21:54;6.90;;;5.83;;
1779;SDS011;10019;46.670;14.260;2022-08-19T05:24:43;6.27;;;4.70;;
1779;SDS011;10019;46.670;14.260;2022-08-19T05:27:15;5.90;;;4.60;;
1779;SDS011;10019;46.670;14.260;2022-08-19T05:29:48;5.93;;;4.27;;
1779;SDS011;10019;46.670;14.260;2022-08-19T05:32:19;6.07;;;5.43;;
1779;SDS011;10019;46.670;14.260;2022-08-19T05:34:51;4.70;;;4.20;;
1779;SDS011;10019;46.670;14.260;2022-08-19T05:37:23;5.30;;;4.20;;
1779;SDS011;10019;46.670;14.260;2022-08-19T05:39:56;7.17;;;5.70;;
1779;SDS011;10019;46.670;14.260;2022-08-19T05:42:28;5.10;;;4.27;;
1779;SDS011;10019;46.670;14.260;2022-08-19T05:45:02;5.53;;;4.40;;
1779;SDS011;10019;46.670;14.260;2022-08-19T05:47:34;5.50;;;5.00;;
1779;SDS011;10019;46.670;14.260;2022-08-19T05:50:07;4.90;;;4.20;;
1779;SDS011;10019;46.670;14.260;2022-08-19T05:52:39;5.10;;;4.60;;
1779;SDS011;10019;46.670;14.260;2022-08-19T05:55:11;6.10;;;4.57;;
1779;SDS011;10019;46.670;14.260;2022-08-19T05:57:43;7.00;;;4.57;;
1779;SDS011;10019;46.670;14.260;2022-08-19T06:00:16;5.17;;;4.30;;
1779;SDS011;10019;46.670;14.260;2022-08-19T06:02:48;7.53;;;5.13;;
1779;SDS011;10019;46.670;14.260;2022-08-19T06:05:20;6.40;;;5.10;;
1779;SDS011;10019;46.670;14.260;2022-08-19T06:07:52;7.13;;;4.53;;
1779;SDS011;10019;46.670;14.260;2022-08-19T06:10:24;5.50;;;5.00;;
1779;SDS011;10019;46.670;14.260;2022-08-19T06:12:57;4.80;;;4.03;;
1779;SDS011;10019;46.670;14.260;2022-08-19T06:15:30;9.17;;;5.20;;
1779;SDS011;10019;46.670;14.260;2022-08-19T06:18:01;5.23;;;4.70;;
1779;SDS011;10019;46.670;14.260;2022-08-19T06:20:33;6.23;;;5.13;;
1779;SDS011;10019;46.670;14.260;2022-08-19T06:23:05;7.50;;;4.50;;
1779;SDS011;10019;46.670;14.260;2022-08-19T06:25:37;4.83;;;4.30;;
1779;SDS011;10019;46.670;14.260;2022-08-19T06:28:10;7.27;;;4.50;;
1779;SDS011;10019;46.670;14.260;2022-08-19T06:30:43;6.33;;;4.20;;
1779;SDS011;10019;46.670;14.260;2022-08-19T06:33:15;8.80;;;4.80;;
1779;SDS011;10019;46.670;14.260;2022-08-19T06:35:46;5.00;;;4.50;;
1779;SDS011;10019;46.670;14.260;2022-08-19T06:38:18;5.17;;;4.23;;
1779;SDS011;10019;46.670;14.260;2022-08-19T06:40:50;5.50;;;3.77;;
1779;SDS011;10019;46.670;14.260;2022-08-19T06:43:22;5.63;;;3.93;;
1779;SDS011;10019;46.670;14.260;2022-08-19T06:45:55;6.33;;;4.20;;
1779;SDS011;10019;46.670;14.260;2022-08-19T06:48:26;9.53;;;4.23;;
1779;SDS011;10019;46.670;14.260;2022-08-19T06:50:58;6.00;;;4.10;;
1779;SDS011;10019;46.670;14.260;2022-08-19T06:53:30;4.37;;;3.97;;
1779;SDS011;10019;46.670;14.260;2022-08-19T06:56:02;4.53;;;4.00;;
1779;SDS011;10019;46.670;14.260;2022-08-19T06:58:34;4.70;;;4.10;;
1779;SDS011;10019;46.670;14.260;2022-08-19T07:01:07;8.57;;;4.40;;
1779;SDS011;10019;46.670;14.260;2022-08-19T07:03:39;4.97;;;3.73;;
1779;SDS011;10019;46.670;14.260;2022-08-19T07:06:12;5.37;;;4.10;;
1779;SDS011;10019;46.670;14.260;2022-08-19T07:08:47;8.63;;;4.07;;
1779;SDS011;10019;46.670;14.260;2022-08-19T07:11:20;5.60;;;4.03;;
1779;SDS011;10019;46.670;14.260;2022-08-19T07:13:52;4.03;;;3.73;;
1779;SDS011;10019;46.670;14.260;2022-08-19T07:16:26;5.63;;;4.10;;
1779;SDS011;10019;46.670;14.260;2022-08-19T07:18:58;6.30;;;4.20;;
1779;SDS011;10019;46.670;14.260;2022-08-19T07:21:30;6.70;;;4.00;;
1779;SDS011;10019;46.670;14.260;2022-08-19T07:24:02;5.70;;;4.50;;
1779;SDS011;10019;46.670;14.260;2022-08-19T07:26:37;4.73;;;3.90;;
1779;SDS011;10019;46.670;14.260;2022-08-19T07:29:10;4.27;;;3.87;;
1779;SDS011;10019;46.670;14.260;2022-08-19T07:31:44;4.33;;;3.80;;
1779;SDS011;10019;46.670;14.260;2022-08-19T07:34:16;3.60;;;3.17;;
1779;SDS011;10019;46.670;14.260;2022-08-19T07:36:48;7.30;;;3.83;;
1779;SDS011;10019;46.670;14.260;2022-08-19T07:39:21;3.80;;;3.40;;
1779;SDS011;10019;46.670;14.260;2022-08-19T07:41:55;4.30;;;3.03;;
1779;SDS011;10019;46.670;14.260;2022-08-19T07:44:27;3.33;;;3.03;;
1779;SDS011;10019;46.670;14.260;2022-08-19T07:47:00;5.10;;;2.83;;
1779;SDS011;10019;46.670;14.260;2022-08-19T07:49:34;3.87;;;3.47;;
1779;SDS011;10019;46.670;14.260;2022-08-19T07:52:07;3.80;;;2.97;;
1779;SDS011;10019;46.670;14.260;2022-08-19T07:54:40;4.23;;;3.03;;
1779;SDS011;10019;46.670;14.260;2022-08-19T07:57:12;5.53;;;3.67;;
1779;SDS011;10019;46.670;14.260;2022-08-19T07:59:43;3.30;;;2.80;;
1779;SDS011;10019;46.670;14.260;2022-08-19T08:02:17;4.70;;;2.93;;
1779;SDS011;10019;46.670;14.260;2022-08-19T08:04:48;3.83;;;2.70;;
1779;SDS011;10019;46.670;14.260;2022-08-19T08:07:37;4.70;;;2.63;;
1779;SDS011;10019;46.670;14.260;2022-08-19T08:10:26;5.67;;;2.93;;
1779;SDS011;10019;46.670;14.260;2022-08-19T08:12:58;6.83;;;2.73;;
1779;SDS011;10019;46.670;14.260;2022-08-19T08:15:30;5.77;;;2.97;;
1779;SDS011;10019;46.670;14.260;2022-08-19T08:18:04;5.10;;;3.00;;
1779;SDS011;10019;46.670;14.260;2022-08-19T08:20:36;4.00;;;3.10;;
1779;SDS011;10019;46.670;14.260;2022-08-19T08:23:07;4.10;;;2.90;;
1779;SDS011;10019;46.670;14.260;2022-08-19T08:25:55;4.00;;;3.00;;
1779;SDS011;10019;46.670;14.260;2022-08-19T08:28:28;4.07;;;2.93;;
1779;SDS011;10019;46.670;14.260;2022-08-19T08:31:00;5.10;;;3.10;;
1779;SDS011;10019;46.670;14.260;2022-08-19T08:33:33;3.60;;;2.90;;
1779;SDS011;10019;46.670;14.260;2022-08-19T08:36:05;5.10;;;2.73;;
1779;SDS011;10019;46.670;14.260;2022-08-19T08:38:37;4.43;;;2.50;;
1779;SDS011;10019;46.670;14.260;2022-08-19T08:41:22;4.47;;;3.13;;
1779;SDS011;10019;46.670;14.260;2022-08-19T08:43:59;3.10;;;2.80;;
1779;SDS011;10019;46.670;14.260;2022-08-19T08:46:34;4.30;;;3.30;;
1779;SDS011;10019;46.670;14.260;2022-08-19T08:49:15;4.53;;;2.90;;
1779;SDS011;10019;46.670;14.260;2022-08-19T08:51:59;5.00;;;2.63;;
1779;SDS011;10019;46.670;14.260;2022-08-19T08:54:37;3.73;;;2.27;;
1779;SDS011;10019;46.670;14.260;2022-08-19T08:57:12;4.43;;;2.53;;
1779;SDS011;10019;46.670;14.260;2022-08-19T08:59:47;4.13;;;2.77;;
1779;SDS011;10019;46.670;14.260;2022-08-19T09:02:21;3.37;;;2.10;;
1779;SDS011;10019;46.670;14.260;2022-08-19T09:04:54;3.20;;;2.50;;
1779;SDS011;10019;46.670;14.260;2022-08-19T09:07:30;3.77;;;2.50;;
1779;SDS011;10019;46.670;14.260;2022-08-19T09:10:10;4.20;;;2.13;;
1779;SDS011;10019;46.670;14.260;2022-08-19T09:12:53;3.50;;;2.30;;
1779;SDS011;10019;46.670;14.260;2022-08-19T09:15:31;4.63;;;2.10;;
1779;SDS011;10019;46.670;14.260;2022-08-19T09:18:06;4.30;;;2.30;;
1779;SDS011;10019;46.670;14.260;2022-08-19T09:20:41;2.77;;;2.20;;
1779;SDS011;10019;46.670;14.260;2022-08-19T09:23:12;4.83;;;2.63;;
1779;SDS011;10019;46.670;14.260;2022-08-19T09:25:44;3.30;;;2.47;;
1779;SDS011;10019;46.670;14.260;2022-08-19T09:28:16;4.07;;;2.60;;
1779;SDS011;10019;46.670;14.260;2022-08-19T09:30:48;4.23;;;3.00;;
1779;SDS011;10019;46.670;14.260;2022-08-19T09:33:20;3.50;;;2.70;;
1779;SDS011;10019;46.670;14.260;2022-08-19T09:36:02;5.30;;;2.47;;
1779;SDS011;10019;46.670;14.260;2022-08-19T09:38:35;4.73;;;2.50;;
1779;SDS011;10019;46.670;14.260;2022-08-19T09:41:10;4.57;;;2.37;;
1779;SDS011;10019;46.670;14.260;2022-08-19T09:43:44;3.47;;;2.40;;
1779;SDS011;10019;46.670;14.260;2022-08-19T09:46:17;3.90;;;2.60;;
1779;SDS011;10019;46.670;14.260;2022-08-19T09:48:51;4.77;;;2.70;;
1779;SDS011;10019;46.670;14.260;2022-08-19T09:51:25;2.77;;;2.13;;
1779;SDS011;10019;46.670;14.260;2022-08-19T09:53:59;3.20;;;2.30;;
1779;SDS011;10019;46.670;14.260;2022-08-19T09:56:32;2.83;;;2.33;;
1779;SDS011;10019;46.670;14.260;2022-08-19T09:59:04;2.70;;;2.30;;
1779;SDS011;10019;46.670;14.260;2022-08-19T10:01:35;2.80;;;2.50;;
1779;SDS011;10019;46.670;14.260;2022-08-19T10:04:07;2.40;;;2.20;;
1779;SDS011;10019;46.670;14.260;2022-08-19T10:06:40;5.10;;;2.03;;
1779;SDS011;10019;46.670;14.260;2022-08-19T10:09:13;3.13;;;2.17;;
1779;SDS011;10019;46.670;14.260;2022-08-19T10:11:45;2.90;;;2.40;;
1779;SDS011;10019;46.670;14.260;2022-08-19T10:14:19;3.90;;;3.00;;
1779;SDS011;10019;46.670;14.260;2022-08-19T10:16:52;2.43;;;2.23;;
1779;SDS011;10019;46.670;14.260;2022-08-19T10:19:24;5.93;;;2.90;;
1779;SDS011;10019;46.670;14.260;2022-08-19T10:21:57;4.63;;;2.60;;
1779;SDS011;10019;46.670;14.260;2022-08-19T10:24:28;4.70;;;2.20;;
1779;SDS011;10019;46.670;14.260;2022-08-19T10:27:00;3.03;;;2.20;;
1779;SDS011;10019;46.670;14.260;2022-08-19T10:29:34;2.80;;;2.60;;
1779;SDS011;10019;46.670;14.260;2022-08-19T10:32:06;4.83;;;2.40;;
1779;SDS011;10019;46.670;14.260;2022-08-19T10:34:40;4.30;;;2.70;;
1779;SDS011;10019;46.670;14.260;2022-08-19T10:37:13;2.53;;;2.33;;
1779;SDS011;10019;46.670;14.260;2022-08-19T10:39:45;2.20;;;2.00;;
1779;SDS011;10019;46.670;14.260;2022-08-19T10:42:18;3.10;;;2.60;;
1779;SDS011;10019;46.670;14.260;2022-08-19T10:44:50;5.27;;;2.27;;
1779;SDS011;10019;46.670;14.260;2022-08-19T10:47:22;6.00;;;2.63;;
1779;SDS011;10019;46.670;14.260;2022-08-19T10:49:54;5.83;;;2.60;;
1779;SDS011;10019;46.670;14.260;2022-08-19T10:52:47;2.83;;;2.63;;
1779;SDS011;10019;46.670;14.260;2022-08-19T10:55:20;3.20;;;2.50;;
1779;SDS011;10019;46.670;14.260;2022-08-19T10:58:11;3.03;;;2.73;;
1779;SDS011;10019;46.670;14.260;2022-08-19T11:00:50;4.10;;;3.03;;
1779;SDS011;10019;46.670;14.260;2022-08-19T11:03:24;7.63;;;2.80;;
1779;SDS011;10019;46.670;14.260;2022-08-19T11:05:57;9.00;;;3.00;;
1779;SDS011;10019;46.670;14.260;2022-08-19T11:08:31;4.80;;;2.90;;
1779;SDS011;10019;46.670;14.260;2022-08-19T11:11:04;3.90;;;3.30;;
1779;SDS011;10019;46.670;14.260;2022-08-19T11:13:38;4.00;;;2.70;;
1779;SDS011;10019;46.670;14.260;2022-08-19T11:16:12;3.70;;;2.90;;
1779;SDS011;10019;46.670;14.260;2022-08-19T11:18:48;3.30;;;3.00;;
1779;SDS011;10019;46.670;14.260;2022-08-19T11:21:21;3.40;;;3.10;;
1779;SDS011;10019;46.670;14.260;2022-08-19T11:23:57;4.73;;;3.00;;
1779;SDS011;10019;46.670;14.260;2022-08-19T11:26:30;6.03;;;3.20;;
1779;SDS011;10019;46.670;14.260;2022-08-19T11:29:02;5.70;;;2.93;;
1779;SDS011;10019;46.670;14.260;2022-08-19T11:31:36;3.33;;;3.03;;
1779;SDS011;10019;46.670;14.260;2022-08-19T11:34:09;2.80;;;2.60;;
1779;SDS011;10019;46.670;14.260;2022-08-19T11:36:43;5.27;;;3.00;;
1779;SDS011;10019;46.670;14.260;2022-08-19T11:39:17;3.70;;;2.90;;
1779;SDS011;10019;46.670;14.260;2022-08-19T11:41:50;3.80;;;2.60;;
1779;SDS011;10019;46.670;14.260;2022-08-19T11:44:22;4.13;;;2.53;;
1779;SDS011;10019;46.670;14.260;2022-08-19T11:46:54;3.03;;;2.73;;
1779;SDS011;10019;46.670;14.260;2022-08-19T11:49:26;4.00;;;2.80;;
1779;SDS011;10019;46.670;14.260;2022-08-19T11:51:57;3.40;;;2.17;;
1779;SDS011;10019;46.670;14.260;2022-08-19T11:54:30;3.17;;;2.70;;
1779;SDS011;10019;46.670;14.260;2022-08-19T11:57:03;6.33;;;2.57;;
1779;SDS011;10019;46.670;14.260;2022-08-19T11:59:35;4.00;;;3.07;;
1779;SDS011;10019;46.670;14.260;2022-08-19T12:02:07;2.93;;;2.63;;
1779;SDS011;10019;46.670;14.260;2022-08-19T12:04:38;2.67;;;2.43;;
1779;SDS011;10019;46.670;14.260;2022-08-19T12:07:10;3.27;;;2.67;;
1779;SDS011;10019;46.670;14.260;2022-08-19T12:09:43;2.50;;;2.30;;
1779;SDS011;10019;46.670;14.260;2022-08-19T12:12:15;2.93;;;2.57;;
1779;SDS011;10019;46.670;14.260;2022-08-19T12:14:47;4.30;;;2.40;;
1779;SDS011;10019;46.670;14.260;2022-08-19T12:17:20;3.27;;;2.73;;
1779;SDS011;10019;46.670;14.260;2022-08-19T12:19:52;5.80;;;3.10;;
1779;SDS011;10019;46.670;14.260;2022-08-19T12:22:24;2.87;;;2.40;;
1779;SDS011;10019;46.670;14.260;2022-08-19T12:24:57;3.67;;;2.90;;
1779;SDS011;10019;46.670;14.260;2022-08-19T12:27:29;3.60;;;2.80;;
1779;SDS011;10019;46.670;14.260;2022-08-19T12:30:01;3.00;;;2.70;;
1779;SDS011;10019;46.670;14.260;2022-08-19T12:32:33;4.90;;;2.77;;
1779;SDS011;10019;46.670;14.260;2022-08-19T12:35:05;3.20;;;2.70;;
1779;SDS011;10019;46.670;14.260;2022-08-19T12:37:38;5.63;;;2.50;;
1779;SDS011;10019;46.670;14.260;2022-08-19T12:40:13;4.23;;;2.67;;
1779;SDS011;10019;46.670;14.260;2022-08-19T12:42:45;3.43;;;2.60;;
1779;SDS011;10019;46.670;14.260;2022-08-19T12:45:19;4.83;;;2.90;;
1779;SDS011;10019;46.670;14.260;2022-08-19T12:47:50;4.17;;;2.93;;
1779;SDS011;10019;46.670;14.260;2022-08-19T12:50:23;3.17;;;2.60;;
1779;SDS011;10019;46.670;14.260;2022-08-19T12:52:54;3.10;;;2.80;;
1779;SDS011;10019;46.670;14.260;2022-08-19T12:55:28;3.93;;;2.73;;
1779;SDS011;10019;46.670;14.260;2022-08-19T12:58:00;3.30;;;3.00;;
1779;SDS011;10019;46.670;14.260;2022-08-19T13:00:32;3.10;;;2.80;;
1779;SDS011;10019;46.670;14.260;2022-08-19T13:03:04;3.73;;;2.43;;
1779;SDS011;10019;46.670;14.260;2022-08-19T13:05:35;3.10;;;2.80;;
1779;SDS011;10019;46.670;14.260;2022-08-19T13:08:07;3.63;;;2.80;;
1779;SDS011;10019;46.670;14.260;2022-08-19T13:10:40;6.10;;;3.00;;
1779;SDS011;10019;46.670;14.260;2022-08-19T13:13:12;3.30;;;3.00;;
1779;SDS011;10019;46.670;14.260;2022-08-19T13:15:44;3.63;;;3.20;;
1779;SDS011;10019;46.670;14.260;2022-08-19T13:18:16;3.30;;;3.00;;
1779;SDS011;10019;46.670;14.260;2022-08-19T13:20:47;4.20;;;2.50;;
1779;SDS011;10019;46.670;14.260;2022-08-19T13:23:19;4.87;;;3.00;;
1779;SDS011;10019;46.670;14.260;2022-08-19T13:26:02;4.13;;;3.00;;
1779;SDS011;10019;46.670;14.260;2022-08-19T13:28:35;3.90;;;3.50;;
1779;SDS011;10019;46.670;14.260;2022-08-19T13:31:25;3.63;;;3.27;;
1779;SDS011;10019;46.670;14.260;2022-08-19T13:34:16;3.70;;;3.40;;
1779;SDS011;10019;46.670;14.260;2022-08-19T13:36:49;4.80;;;3.50;;
1779;SDS011;10019;46.670;14.260;2022-08-19T13:39:23;6.23;;;3.40;;
1779;SDS011;10019;46.670;14.260;2022-08-19T13:41:56;4.17;;;3.33;;
1779;SDS011;10019;46.670;14.260;2022-08-19T13:44:30;4.77;;;3.47;;
1779;SDS011;10019;46.670;14.260;2022-08-19T13:47:02;5.90;;;3.63;;
1779;SDS011;10019;46.670;14.260;2022-08-19T13:49:36;5.90;;;3.80;;
1779;SDS011;10019;46.670;14.260;2022-08-19T13:52:08;3.97;;;3.20;;
1779;SDS011;10019;46.670;14.260;2022-08-19T13:54:40;5.70;;;3.50;;
1779;SDS011;10019;46.670;14.260;2022-08-19T13:57:14;3.57;;;3.07;;
1779;SDS011;10019;46.670;14.260;2022-08-19T13:59:45;4.00;;;3.30;;
1779;SDS011;10019;46.670;14.260;2022-08-19T14:02:17;3.23;;;2.87;;
1779;SDS011;10019;46.670;14.260;2022-08-19T14:04:49;5.10;;;3.00;;
1779;SDS011;10019;46.670;14.260;2022-08-19T14:07:20;4.47;;;2.97;;
1779;SDS011;10019;46.670;14.260;2022-08-19T14:09:53;3.27;;;2.70;;
1779;SDS011;10019;46.670;14.260;2022-08-19T14:12:26;3.17;;;2.70;;
1779;SDS011;10019;46.670;14.260;2022-08-19T14:14:58;3.20;;;2.90;;
1779;SDS011;10019;46.670;14.260;2022-08-19T14:17:30;4.07;;;2.40;;
1779;SDS011;10019;46.670;14.260;2022-08-19T14:20:03;3.13;;;2.53;;
1779;SDS011;10019;46.670;14.260;2022-08-19T14:22:39;5.20;;;2.90;;
1779;SDS011;10019;46.670;14.260;2022-08-19T14:25:12;4.27;;;2.67;;
1779;SDS011;10019;46.670;14.260;2022-08-19T14:27:47;4.40;;;3.30;;
1779;SDS011;10019;46.670;14.260;2022-08-19T14:30:20;4.73;;;2.90;;
1779;SDS011;10019;46.670;14.260;2022-08-19T14:32:53;3.80;;;2.90;;
1779;SDS011;10019;46.670;14.260;2022-08-19T14:35:25;4.00;;;3.07;;
1779;SDS011;10019;46.670;14.260;2022-08-19T14:37:57;2.87;;;2.30;;
1779;SDS011;10019;46.670;14.260;2022-08-19T14:40:29;5.07;;;3.10;;
1779;SDS011;10019;46.670;14.260;2022-08-19T14:43:03;3.63;;;2.50;;
1779;SDS011;10019;46.670;14.260;2022-08-19T14:45:36;3.40;;;2.70;;
1779;SDS011;10019;46.670;14.260;2022-08-19T14:48:08;4.03;;;2.80;;
1779;SDS011;10019;46.670;14.260;2022-08-19T14:50:40;3.73;;;2.87;;
1779;SDS011;10019;46.670;14.260;2022-08-19T14:53:12;3.47;;;2.60;;
1779;SDS011;10019;46.670;14.260;2022-08-19T14:55:45;3.70;;;2.50;;
1779;SDS011;10019;46.670;14.260;2022-08-19T14:58:18;4.13;;;2.77;;
1779;SDS011;10019;46.670;14.260;2022-08-19T15:00:50;2.87;;;2.50;;
1779;SDS011;10019;46.670;14.260;2022-08-19T15:03:22;3.20;;;2.90;;
1779;SDS011;10019;46.670;14.260;2022-08-19T15:05:54;2.67;;;2.33;;
1779;SDS011;10019;46.670;14.260;2022-08-19T15:08:27;2.97;;;2.67;;
1779;SDS011;10019;46.670;14.260;2022-08-19T15:11:00;2.67;;;2.40;;
1779;SDS011;10019;46.670;14.260;2022-08-19T15:13:33;3.40;;;2.67;;
1779;SDS011;10019;46.670;14.260;2022-08-19T15:16:06;2.47;;;2.27;;
1779;SDS011;10019;46.670;14.260;2022-08-19T15:18:38;3.13;;;2.30;;
1779;SDS011;10019;46.670;14.260;2022-08-19T15:21:14;4.27;;;2.23;;
1779;SDS011;10019;46.670;14.260;2022-08-19T15:23:48;4.30;;;2.67;;
1779;SDS011;10019;46.670;14.260;2022-08-19T15:26:20;4.80;;;2.30;;
1779;SDS011;10019;46.670;14.260;2022-08-19T15:28:53;3.17;;;2.30;;
1779;SDS011;10019;46.670;14.260;2022-08-19T15:31:26;6.80;;;2.70;;
1779;SDS011;10019;46.670;14.260;2022-08-19T15:33:58;2.27;;;2.00;;
1779;SDS011;10019;46.670;14.260;2022-08-19T15:36:30;3.53;;;1.87;;
1779;SDS011;10019;46.670;14.260;2022-08-19T15:39:02;2.23;;;1.90;;
1779;SDS011;10019;46.670;14.260;2022-08-19T15:41:34;3.97;;;1.80;;
1779;SDS011;10019;46.670;14.260;2022-08-19T15:44:08;2.50;;;2.23;;